sensor_id;sensor_type;location;lat;lon;timestamp;P1;durP1;ratioP1;P2;durP2;ratioP2
50205;SDS011;36098;48.390;10.856;2023-11-25T00:01:19;1.55;;;0.77;;
50205;SDS011;36098;48.390;10.856;2023-11-25T00:03:44;1.65;;;0.60;;
50205;SDS011;36098;48.390;10.856;2023-11-25T00:06:10;2.67;;;0.70;;
50205;SDS011;36098;48.390;10.856;2023-11-25T00:08:35;2.63;;;1.00;;
50205;SDS011;36098;48.390;10.856;2023-11-25T00:11:00;3.10;;;0.77;;
50205;SDS011;36098;48.390;10.856;2023-11-25T00:13:25;3.83;;;0.95;;
50205;SDS011;36098;48.390;10.856;2023-11-25T00:15:51;2.05;;;0.88;;
50205;SDS011;36098;48.390;10.856;2023-11-25T00:18:17;1.88;;;0.65;;
50205;SDS011;36098;48.390;10.856;2023-11-25T00:20:43;3.08;;;0.90;;
50205;SDS011;36098;48.390;10.856;2023-11-25T00:23:08;1.92;;;0.80;;
50205;SDS011;36098;48.390;10.856;2023-11-25T00:25:33;2.35;;;0.70;;
50205;SDS011;36098;48.390;10.856;2023-11-25T00:27:58;2.08;;;0.75;;
50205;SDS011;36098;48.390;10.856;2023-11-25T00:30:24;2.10;;;0.80;;
50205;SDS011;36098;48.390;10.856;2023-11-25T00:32:50;2.05;;;0.70;;
50205;SDS011;36098;48.390;10.856;2023-11-25T00:35:16;1.55;;;0.65;;
50205;SDS011;36098;48.390;10.856;2023-11-25T00:37:42;1.58;;;0.60;;
50205;SDS011;36098;48.390;10.856;2023-11-25T00:40:07;1.38;;;0.70;;
50205;SDS011;36098;48.390;10.856;2023-11-25T00:42:36;1.33;;;0.68;;
50205;SDS011;36098;48.390;10.856;2023-11-25T00:45:05;2.63;;;0.70;;
50205;SDS011;36098;48.390;10.856;2023-11-25T00:47:31;1.45;;;0.77;;
50205;SDS011;36098;48.390;10.856;2023-11-25T00:49:56;0.90;;;0.60;;
50205;SDS011;36098;48.390;10.856;2023-11-25T00:52:22;1.50;;;0.80;;
50205;SDS011;36098;48.390;10.856;2023-11-25T00:54:47;1.55;;;0.65;;
50205;SDS011;36098;48.390;10.856;2023-11-25T00:57:12;1.65;;;0.60;;
50205;SDS011;36098;48.390;10.856;2023-11-25T00:59:37;1.23;;;0.80;;
50205;SDS011;36098;48.390;10.856;2023-11-25T01:02:03;2.58;;;0.80;;
50205;SDS011;36098;48.390;10.856;2023-11-25T01:04:28;2.35;;;0.75;;
50205;SDS011;36098;48.390;10.856;2023-11-25T01:06:54;1.00;;;0.50;;
50205;SDS011;36098;48.390;10.856;2023-11-25T01:09:19;2.55;;;0.70;;
50205;SDS011;36098;48.390;10.856;2023-11-25T01:11:45;0.63;;;0.40;;
50205;SDS011;36098;48.390;10.856;2023-11-25T01:14:11;1.65;;;0.63;;
50205;SDS011;36098;48.390;10.856;2023-11-25T01:16:37;1.73;;;0.68;;
50205;SDS011;36098;48.390;10.856;2023-11-25T01:19:03;1.52;;;0.60;;
50205;SDS011;36098;48.390;10.856;2023-11-25T01:21:29;3.72;;;0.63;;
50205;SDS011;36098;48.390;10.856;2023-11-25T01:23:54;1.33;;;0.73;;
50205;SDS011;36098;48.390;10.856;2023-11-25T01:26:20;1.27;;;0.60;;
50205;SDS011;36098;48.390;10.856;2023-11-25T01:28:47;1.58;;;0.70;;
50205;SDS011;36098;48.390;10.856;2023-11-25T01:31:12;1.95;;;0.60;;
50205;SDS011;36098;48.390;10.856;2023-11-25T01:33:39;1.52;;;0.80;;
50205;SDS011;36098;48.390;10.856;2023-11-25T01:36:05;1.65;;;0.80;;
50205;SDS011;36098;48.390;10.856;2023-11-25T01:38:34;1.20;;;0.45;;
50205;SDS011;36098;48.390;10.856;2023-11-25T01:41:00;2.15;;;0.50;;
50205;SDS011;36098;48.390;10.856;2023-11-25T01:43:26;2.50;;;0.60;;
50205;SDS011;36098;48.390;10.856;2023-11-25T01:45:52;1.38;;;0.60;;
50205;SDS011;36098;48.390;10.856;2023-11-25T01:48:21;1.65;;;0.57;;
50205;SDS011;36098;48.390;10.856;2023-11-25T01:50:47;0.82;;;0.52;;
50205;SDS011;36098;48.390;10.856;2023-11-25T01:53:14;2.25;;;0.60;;
50205;SDS011;36098;48.390;10.856;2023-11-25T01:55:42;1.20;;;0.60;;
50205;SDS011;36098;48.390;10.856;2023-11-25T01:58:09;1.42;;;0.50;;
50205;SDS011;36098;48.390;10.856;2023-11-25T02:00:35;0.85;;;0.52;;
50205;SDS011;36098;48.390;10.856;2023-11-25T02:03:03;1.73;;;0.77;;
50205;SDS011;36098;48.390;10.856;2023-11-25T02:05:30;1.95;;;0.63;;
50205;SDS011;36098;48.390;10.856;2023-11-25T02:07:56;1.02;;;0.45;;
50205;SDS011;36098;48.390;10.856;2023-11-25T02:10:21;1.25;;;0.50;;
50205;SDS011;36098;48.390;10.856;2023-11-25T02:12:46;1.55;;;0.65;;
50205;SDS011;36098;48.390;10.856;2023-11-25T02:15:12;1.17;;;0.50;;
50205;SDS011;36098;48.390;10.856;2023-11-25T02:17:42;0.73;;;0.40;;
50205;SDS011;36098;48.390;10.856;2023-11-25T02:20:10;1.20;;;0.50;;
50205;SDS011;36098;48.390;10.856;2023-11-25T02:22:36;1.30;;;0.40;;
50205;SDS011;36098;48.390;10.856;2023-11-25T02:25:01;1.75;;;0.50;;
50205;SDS011;36098;48.390;10.856;2023-11-25T02:27:28;1.15;;;0.60;;
50205;SDS011;36098;48.390;10.856;2023-11-25T02:29:53;0.98;;;0.43;;
50205;SDS011;36098;48.390;10.856;2023-11-25T02:32:19;1.17;;;0.70;;
50205;SDS011;36098;48.390;10.856;2023-11-25T02:34:44;1.30;;;0.57;;
50205;SDS011;36098;48.390;10.856;2023-11-25T02:37:10;1.63;;;0.52;;
50205;SDS011;36098;48.390;10.856;2023-11-25T02:39:38;0.85;;;0.40;;
50205;SDS011;36098;48.390;10.856;2023-11-25T02:42:03;1.90;;;0.40;;
50205;SDS011;36098;48.390;10.856;2023-11-25T02:44:31;0.90;;;0.40;;
50205;SDS011;36098;48.390;10.856;2023-11-25T02:46:56;1.58;;;0.45;;
50205;SDS011;36098;48.390;10.856;2023-11-25T02:49:22;2.13;;;0.45;;
50205;SDS011;36098;48.390;10.856;2023-11-25T02:54:13;1.00;;;0.43;;
50205;SDS011;36098;48.390;10.856;2023-11-25T02:56:39;1.08;;;0.50;;
50205;SDS011;36098;48.390;10.856;2023-11-25T02:59:04;0.75;;;0.50;;
50205;SDS011;36098;48.390;10.856;2023-11-25T03:01:30;0.88;;;0.40;;
50205;SDS011;36098;48.390;10.856;2023-11-25T03:03:57;1.10;;;0.50;;
50205;SDS011;36098;48.390;10.856;2023-11-25T03:06:26;1.00;;;0.40;;
50205;SDS011;36098;48.390;10.856;2023-11-25T03:08:52;0.88;;;0.30;;
50205;SDS011;36098;48.390;10.856;2023-11-25T03:11:20;0.98;;;0.40;;
50205;SDS011;36098;48.390;10.856;2023-11-25T03:13:46;1.30;;;0.47;;
50205;SDS011;36098;48.390;10.856;2023-11-25T03:16:11;0.88;;;0.40;;
50205;SDS011;36098;48.390;10.856;2023-11-25T03:18:37;1.20;;;0.47;;
50205;SDS011;36098;48.390;10.856;2023-11-25T03:21:02;0.70;;;0.40;;
50205;SDS011;36098;48.390;10.856;2023-11-25T03:23:28;0.80;;;0.40;;
50205;SDS011;36098;48.390;10.856;2023-11-25T03:25:54;0.68;;;0.40;;
50205;SDS011;36098;48.390;10.856;2023-11-25T03:28:20;1.08;;;0.55;;
50205;SDS011;36098;48.390;10.856;2023-11-25T03:30:47;0.55;;;0.40;;
50205;SDS011;36098;48.390;10.856;2023-11-25T03:33:12;0.57;;;0.30;;
50205;SDS011;36098;48.390;10.856;2023-11-25T03:35:38;1.50;;;0.40;;
50205;SDS011;36098;48.390;10.856;2023-11-25T03:38:03;0.40;;;0.30;;
50205;SDS011;36098;48.390;10.856;2023-11-25T03:40:29;1.63;;;0.38;;
50205;SDS011;36098;48.390;10.856;2023-11-25T03:42:54;1.20;;;0.40;;
50205;SDS011;36098;48.390;10.856;2023-11-25T03:45:19;0.77;;;0.47;;
50205;SDS011;36098;48.390;10.856;2023-11-25T03:47:46;1.67;;;0.60;;
50205;SDS011;36098;48.390;10.856;2023-11-25T03:50:12;0.75;;;0.40;;
50205;SDS011;36098;48.390;10.856;2023-11-25T03:52:40;1.02;;;0.50;;
50205;SDS011;36098;48.390;10.856;2023-11-25T03:55:09;0.40;;;0.30;;
50205;SDS011;36098;48.390;10.856;2023-11-25T03:57:36;0.80;;;0.40;;
50205;SDS011;36098;48.390;10.856;2023-11-25T04:00:03;0.80;;;0.50;;
50205;SDS011;36098;48.390;10.856;2023-11-25T04:02:28;1.00;;;0.50;;
50205;SDS011;36098;48.390;10.856;2023-11-25T04:04:54;0.63;;;0.40;;
50205;SDS011;36098;48.390;10.856;2023-11-25T04:07:19;0.93;;;0.40;;
50205;SDS011;36098;48.390;10.856;2023-11-25T04:09:44;0.63;;;0.32;;
50205;SDS011;36098;48.390;10.856;2023-11-25T04:12:10;1.85;;;0.60;;
50205;SDS011;36098;48.390;10.856;2023-11-25T04:14:35;1.05;;;0.40;;
50205;SDS011;36098;48.390;10.856;2023-11-25T04:17:01;0.82;;;0.30;;
50205;SDS011;36098;48.390;10.856;2023-11-25T04:19:28;0.98;;;0.40;;
50205;SDS011;36098;48.390;10.856;2023-11-25T04:21:53;0.98;;;0.40;;
50205;SDS011;36098;48.390;10.856;2023-11-25T04:24:23;0.30;;;0.20;;
50205;SDS011;36098;48.390;10.856;2023-11-25T04:26:51;0.60;;;0.40;;
50205;SDS011;36098;48.390;10.856;2023-11-25T04:29:16;0.65;;;0.40;;
50205;SDS011;36098;48.390;10.856;2023-11-25T04:31:41;0.73;;;0.40;;
50205;SDS011;36098;48.390;10.856;2023-11-25T04:34:06;0.63;;;0.40;;
50205;SDS011;36098;48.390;10.856;2023-11-25T04:36:32;0.98;;;0.30;;
50205;SDS011;36098;48.390;10.856;2023-11-25T04:39:00;0.45;;;0.30;;
50205;SDS011;36098;48.390;10.856;2023-11-25T04:41:26;1.02;;;0.47;;
50205;SDS011;36098;48.390;10.856;2023-11-25T04:43:51;0.93;;;0.35;;
50205;SDS011;36098;48.390;10.856;2023-11-25T04:46:16;0.93;;;0.40;;
50205;SDS011;36098;48.390;10.856;2023-11-25T04:48:42;1.15;;;0.50;;
50205;SDS011;36098;48.390;10.856;2023-11-25T04:51:07;1.52;;;0.30;;
50205;SDS011;36098;48.390;10.856;2023-11-25T04:53:32;1.60;;;0.50;;
50205;SDS011;36098;48.390;10.856;2023-11-25T04:55:57;1.50;;;0.50;;
50205;SDS011;36098;48.390;10.856;2023-11-25T04:58:23;1.02;;;0.40;;
50205;SDS011;36098;48.390;10.856;2023-11-25T05:00:48;0.70;;;0.30;;
50205;SDS011;36098;48.390;10.856;2023-11-25T05:03:13;0.45;;;0.30;;
50205;SDS011;36098;48.390;10.856;2023-11-25T05:05:39;0.98;;;0.52;;
50205;SDS011;36098;48.390;10.856;2023-11-25T05:08:05;1.10;;;0.40;;
50205;SDS011;36098;48.390;10.856;2023-11-25T05:10:31;0.40;;;0.30;;
50205;SDS011;36098;48.390;10.856;2023-11-25T05:12:57;0.85;;;0.32;;
50205;SDS011;36098;48.390;10.856;2023-11-25T05:15:22;1.20;;;0.57;;
50205;SDS011;36098;48.390;10.856;2023-11-25T05:17:50;0.80;;;0.40;;
50205;SDS011;36098;48.390;10.856;2023-11-25T05:20:15;1.02;;;0.47;;
50205;SDS011;36098;48.390;10.856;2023-11-25T05:22:41;1.48;;;0.32;;
50205;SDS011;36098;48.390;10.856;2023-11-25T05:25:07;0.50;;;0.30;;
50205;SDS011;36098;48.390;10.856;2023-11-25T05:27:35;0.85;;;0.30;;
50205;SDS011;36098;48.390;10.856;2023-11-25T05:30:01;0.50;;;0.40;;
50205;SDS011;36098;48.390;10.856;2023-11-25T05:32:26;0.90;;;0.45;;
50205;SDS011;36098;48.390;10.856;2023-11-25T05:34:52;0.65;;;0.25;;
50205;SDS011;36098;48.390;10.856;2023-11-25T05:37:18;1.23;;;0.60;;
50205;SDS011;36098;48.390;10.856;2023-11-25T05:39:44;1.08;;;0.38;;
50205;SDS011;36098;48.390;10.856;2023-11-25T05:42:10;1.05;;;0.40;;
50205;SDS011;36098;48.390;10.856;2023-11-25T05:44:36;0.82;;;0.45;;
50205;SDS011;36098;48.390;10.856;2023-11-25T05:47:01;0.57;;;0.38;;
50205;SDS011;36098;48.390;10.856;2023-11-25T05:49:26;0.40;;;0.20;;
50205;SDS011;36098;48.390;10.856;2023-11-25T05:51:52;0.70;;;0.47;;
50205;SDS011;36098;48.390;10.856;2023-11-25T05:54:17;0.80;;;0.40;;
50205;SDS011;36098;48.390;10.856;2023-11-25T05:56:43;0.95;;;0.50;;
50205;SDS011;36098;48.390;10.856;2023-11-25T05:59:09;1.30;;;0.30;;
50205;SDS011;36098;48.390;10.856;2023-11-25T06:01:35;0.60;;;0.40;;
50205;SDS011;36098;48.390;10.856;2023-11-25T06:04:01;0.88;;;0.50;;
50205;SDS011;36098;48.390;10.856;2023-11-25T06:06:27;0.43;;;0.30;;
50205;SDS011;36098;48.390;10.856;2023-11-25T06:08:52;0.40;;;0.28;;
50205;SDS011;36098;48.390;10.856;2023-11-25T06:11:21;0.77;;;0.32;;
50205;SDS011;36098;48.390;10.856;2023-11-25T06:13:47;0.63;;;0.30;;
50205;SDS011;36098;48.390;10.856;2023-11-25T06:16:13;0.93;;;0.40;;
50205;SDS011;36098;48.390;10.856;2023-11-25T06:18:39;0.90;;;0.50;;
50205;SDS011;36098;48.390;10.856;2023-11-25T06:21:05;1.20;;;0.45;;
50205;SDS011;36098;48.390;10.856;2023-11-25T06:23:31;0.90;;;0.30;;
50205;SDS011;36098;48.390;10.856;2023-11-25T06:25:57;1.65;;;0.30;;
50205;SDS011;36098;48.390;10.856;2023-11-25T06:28:23;1.42;;;0.50;;
50205;SDS011;36098;48.390;10.856;2023-11-25T06:30:49;1.27;;;0.50;;
50205;SDS011;36098;48.390;10.856;2023-11-25T06:33:25;4.88;;;0.47;;
50205;SDS011;36098;48.390;10.856;2023-11-25T06:35:50;1.20;;;0.50;;
50205;SDS011;36098;48.390;10.856;2023-11-25T06:38:17;1.00;;;0.43;;
50205;SDS011;36098;48.390;10.856;2023-11-25T06:40:42;1.40;;;0.80;;
50205;SDS011;36098;48.390;10.856;2023-11-25T06:43:08;7.32;;;2.47;;
50205;SDS011;36098;48.390;10.856;2023-11-25T06:45:33;4.15;;;1.65;;
50205;SDS011;36098;48.390;10.856;2023-11-25T06:47:59;2.45;;;1.17;;
50205;SDS011;36098;48.390;10.856;2023-11-25T06:50:25;2.22;;;1.10;;
50205;SDS011;36098;48.390;10.856;2023-11-25T06:52:51;3.78;;;1.25;;
50205;SDS011;36098;48.390;10.856;2023-11-25T06:55:19;5.25;;;1.15;;
50205;SDS011;36098;48.390;10.856;2023-11-25T06:57:45;3.45;;;1.10;;
50205;SDS011;36098;48.390;10.856;2023-11-25T07:00:11;2.42;;;1.02;;
50205;SDS011;36098;48.390;10.856;2023-11-25T07:02:37;2.00;;;0.93;;
50205;SDS011;36098;48.390;10.856;2023-11-25T07:05:04;1.80;;;1.05;;
50205;SDS011;36098;48.390;10.856;2023-11-25T07:07:30;2.90;;;1.48;;
50205;SDS011;36098;48.390;10.856;2023-11-25T07:09:55;3.05;;;1.08;;
50205;SDS011;36098;48.390;10.856;2023-11-25T07:12:21;4.25;;;1.33;;
50205;SDS011;36098;48.390;10.856;2023-11-25T07:14:47;2.78;;;1.30;;
50205;SDS011;36098;48.390;10.856;2023-11-25T07:17:12;4.70;;;1.13;;
50205;SDS011;36098;48.390;10.856;2023-11-25T07:19:40;2.10;;;1.20;;
50205;SDS011;36098;48.390;10.856;2023-11-25T07:22:07;4.47;;;1.10;;
50205;SDS011;36098;48.390;10.856;2023-11-25T07:24:33;2.83;;;1.10;;
50205;SDS011;36098;48.390;10.856;2023-11-25T07:26:59;3.78;;;1.30;;
50205;SDS011;36098;48.390;10.856;2023-11-25T07:29:29;2.40;;;1.23;;
50205;SDS011;36098;48.390;10.856;2023-11-25T07:31:57;4.18;;;1.20;;
50205;SDS011;36098;48.390;10.856;2023-11-25T07:34:23;2.42;;;1.17;;
50205;SDS011;36098;48.390;10.856;2023-11-25T07:36:49;2.80;;;1.40;;
50205;SDS011;36098;48.390;10.856;2023-11-25T07:39:14;3.72;;;1.30;;
50205;SDS011;36098;48.390;10.856;2023-11-25T07:41:44;5.13;;;1.30;;
50205;SDS011;36098;48.390;10.856;2023-11-25T07:44:10;3.97;;;0.98;;
50205;SDS011;36098;48.390;10.856;2023-11-25T07:46:36;4.82;;;1.00;;
50205;SDS011;36098;48.390;10.856;2023-11-25T07:49:01;3.20;;;1.00;;
50205;SDS011;36098;48.390;10.856;2023-11-25T07:51:27;6.30;;;1.30;;
50205;SDS011;36098;48.390;10.856;2023-11-25T07:53:53;3.78;;;1.08;;
50205;SDS011;36098;48.390;10.856;2023-11-25T07:56:18;5.60;;;0.90;;
50205;SDS011;36098;48.390;10.856;2023-11-25T07:58:43;7.03;;;1.10;;
50205;SDS011;36098;48.390;10.856;2023-11-25T08:01:09;12.43;;;1.00;;
50205;SDS011;36098;48.390;10.856;2023-11-25T08:03:34;8.38;;;0.90;;
50205;SDS011;36098;48.390;10.856;2023-11-25T08:05:59;3.20;;;0.80;;
50205;SDS011;36098;48.390;10.856;2023-11-25T08:08:24;5.05;;;0.80;;
50205;SDS011;36098;48.390;10.856;2023-11-25T08:10:50;4.20;;;1.05;;
50205;SDS011;36098;48.390;10.856;2023-11-25T08:13:17;4.97;;;1.25;;
50205;SDS011;36098;48.390;10.856;2023-11-25T08:15:44;3.42;;;0.88;;
50205;SDS011;36098;48.390;10.856;2023-11-25T08:18:10;3.45;;;0.80;;
50205;SDS011;36098;48.390;10.856;2023-11-25T08:20:35;3.97;;;1.20;;
50205;SDS011;36098;48.390;10.856;2023-11-25T08:23:00;4.28;;;0.70;;
50205;SDS011;36098;48.390;10.856;2023-11-25T08:25:25;2.65;;;0.93;;
50205;SDS011;36098;48.390;10.856;2023-11-25T08:27:51;10.70;;;0.90;;
50205;SDS011;36098;48.390;10.856;2023-11-25T08:30:16;16.52;;;5.10;;
50205;SDS011;36098;48.390;10.856;2023-11-25T08:32:42;16.13;;;4.03;;
50205;SDS011;36098;48.390;10.856;2023-11-25T08:35:10;111.88;;;37.75;;
50205;SDS011;36098;48.390;10.856;2023-11-25T08:37:36;253.35;;;88.28;;
50205;SDS011;36098;48.390;10.856;2023-11-25T08:40:04;401.77;;;166.07;;
50205;SDS011;36098;48.390;10.856;2023-11-25T08:42:46;497.80;;;218.27;;
50205;SDS011;36098;48.390;10.856;2023-11-25T08:45:11;588.88;;;267.95;;
50205;SDS011;36098;48.390;10.856;2023-11-25T08:47:37;592.10;;;267.95;;
50205;SDS011;36098;48.390;10.856;2023-11-25T08:50:06;571.70;;;263.85;;
50205;SDS011;36098;48.390;10.856;2023-11-25T08:52:34;556.60;;;253.63;;
50205;SDS011;36098;48.390;10.856;2023-11-25T08:55:03;535.78;;;242.88;;
50205;SDS011;36098;48.390;10.856;2023-11-25T08:57:35;543.85;;;250.48;;
50205;SDS011;36098;48.390;10.856;2023-11-25T09:00:04;540.50;;;239.98;;
50205;SDS011;36098;48.390;10.856;2023-11-25T09:02:42;507.50;;;230.55;;
50205;SDS011;36098;48.390;10.856;2023-11-25T09:05:09;473.27;;;213.70;;
50205;SDS011;36098;48.390;10.856;2023-11-25T09:07:36;479.90;;;212.88;;
50205;SDS011;36098;48.390;10.856;2023-11-25T09:10:03;462.38;;;205.73;;
50205;SDS011;36098;48.390;10.856;2023-11-25T09:12:30;460.88;;;201.27;;
50205;SDS011;36098;48.390;10.856;2023-11-25T09:14:56;419.90;;;187.77;;
50205;SDS011;36098;48.390;10.856;2023-11-25T09:17:21;437.48;;;185.57;;
50205;SDS011;36098;48.390;10.856;2023-11-25T09:19:46;425.33;;;184.02;;
50205;SDS011;36098;48.390;10.856;2023-11-25T09:22:12;416.50;;;177.45;;
50205;SDS011;36098;48.390;10.856;2023-11-25T09:24:37;428.05;;;184.25;;
50205;SDS011;36098;48.390;10.856;2023-11-25T09:27:04;408.98;;;175.70;;
50205;SDS011;36098;48.390;10.856;2023-11-25T09:29:30;404.02;;;173.68;;
50205;SDS011;36098;48.390;10.856;2023-11-25T09:31:55;398.50;;;176.88;;
50205;SDS011;36098;48.390;10.856;2023-11-25T09:34:20;383.48;;;166.50;;
50205;SDS011;36098;48.390;10.856;2023-11-25T09:36:45;377.55;;;167.40;;
50205;SDS011;36098;48.390;10.856;2023-11-25T09:39:11;373.35;;;160.52;;
50205;SDS011;36098;48.390;10.856;2023-11-25T09:41:37;351.77;;;153.25;;
50205;SDS011;36098;48.390;10.856;2023-11-25T09:44:02;365.27;;;160.20;;
50205;SDS011;36098;48.390;10.856;2023-11-25T09:46:32;363.25;;;152.70;;
50205;SDS011;36098;48.390;10.856;2023-11-25T09:48:59;353.52;;;151.13;;
50205;SDS011;36098;48.390;10.856;2023-11-25T09:51:24;348.55;;;151.23;;
50205;SDS011;36098;48.390;10.856;2023-11-25T09:53:57;318.73;;;141.65;;
50205;SDS011;36098;48.390;10.856;2023-11-25T09:56:27;325.30;;;141.63;;
50205;SDS011;36098;48.390;10.856;2023-11-25T09:58:53;327.20;;;142.55;;
50205;SDS011;36098;48.390;10.856;2023-11-25T10:01:18;333.80;;;145.90;;
50205;SDS011;36098;48.390;10.856;2023-11-25T10:03:44;319.23;;;139.93;;
50205;SDS011;36098;48.390;10.856;2023-11-25T10:06:12;308.00;;;133.88;;
50205;SDS011;36098;48.390;10.856;2023-11-25T10:08:39;316.77;;;136.68;;
50205;SDS011;36098;48.390;10.856;2023-11-25T10:11:05;306.42;;;132.73;;
50205;SDS011;36098;48.390;10.856;2023-11-25T10:13:33;290.05;;;125.82;;
50205;SDS011;36098;48.390;10.856;2023-11-25T10:16:03;287.80;;;127.25;;
50205;SDS011;36098;48.390;10.856;2023-11-25T10:18:32;280.80;;;121.13;;
50205;SDS011;36098;48.390;10.856;2023-11-25T10:20:59;283.42;;;124.53;;
50205;SDS011;36098;48.390;10.856;2023-11-25T10:23:25;280.63;;;122.28;;
50205;SDS011;36098;48.390;10.856;2023-11-25T10:25:51;269.88;;;115.53;;
50205;SDS011;36098;48.390;10.856;2023-11-25T10:28:17;272.25;;;116.00;;
50205;SDS011;36098;48.390;10.856;2023-11-25T10:30:52;279.13;;;115.32;;
50205;SDS011;36098;48.390;10.856;2023-11-25T10:33:18;279.75;;;115.57;;
50205;SDS011;36098;48.390;10.856;2023-11-25T10:35:46;272.95;;;119.95;;
50205;SDS011;36098;48.390;10.856;2023-11-25T10:38:12;260.92;;;112.55;;
50205;SDS011;36098;48.390;10.856;2023-11-25T10:40:40;246.80;;;104.03;;
50205;SDS011;36098;48.390;10.856;2023-11-25T10:43:06;249.07;;;106.80;;
50205;SDS011;36098;48.390;10.856;2023-11-25T10:45:33;253.38;;;104.55;;
50205;SDS011;36098;48.390;10.856;2023-11-25T10:47:59;233.60;;;100.65;;
50205;SDS011;36098;48.390;10.856;2023-11-25T10:50:25;249.40;;;102.97;;
50205;SDS011;36098;48.390;10.856;2023-11-25T10:52:51;237.10;;;99.97;;
50205;SDS011;36098;48.390;10.856;2023-11-25T10:55:22;241.82;;;103.90;;
50205;SDS011;36098;48.390;10.856;2023-11-25T10:57:50;230.52;;;97.20;;
50205;SDS011;36098;48.390;10.856;2023-11-25T11:00:16;231.45;;;94.68;;
50205;SDS011;36098;48.390;10.856;2023-11-25T11:02:43;212.68;;;90.00;;
50205;SDS011;36098;48.390;10.856;2023-11-25T11:05:21;217.82;;;88.45;;
50205;SDS011;36098;48.390;10.856;2023-11-25T11:08:07;213.68;;;86.35;;
50205;SDS011;36098;48.390;10.856;2023-11-25T11:10:41;195.45;;;84.50;;
50205;SDS011;36098;48.390;10.856;2023-11-25T11:13:14;208.65;;;84.25;;
50205;SDS011;36098;48.390;10.856;2023-11-25T11:15:42;186.35;;;80.13;;
50205;SDS011;36098;48.390;10.856;2023-11-25T11:20:41;193.80;;;79.82;;
50205;SDS011;36098;48.390;10.856;2023-11-25T11:23:11;189.32;;;78.97;;
50205;SDS011;36098;48.390;10.856;2023-11-25T11:25:47;183.18;;;77.40;;
50205;SDS011;36098;48.390;10.856;2023-11-25T11:28:32;176.38;;;74.85;;
50205;SDS011;36098;48.390;10.856;2023-11-25T11:34:01;172.40;;;75.90;;
50205;SDS011;36098;48.390;10.856;2023-11-25T11:36:29;164.00;;;70.05;;
50205;SDS011;36098;48.390;10.856;2023-11-25T11:38:55;167.75;;;70.55;;
50205;SDS011;36098;48.390;10.856;2023-11-25T11:46:30;153.32;;;65.72;;
50205;SDS011;36098;48.390;10.856;2023-11-25T11:48:57;148.93;;;64.28;;
50205;SDS011;36098;48.390;10.856;2023-11-25T11:51:24;146.80;;;64.60;;
50205;SDS011;36098;48.390;10.856;2023-11-25T11:57:02;143.80;;;61.85;;
50205;SDS011;36098;48.390;10.856;2023-11-25T12:02:28;144.57;;;61.13;;
50205;SDS011;36098;48.390;10.856;2023-11-25T12:04:55;133.70;;;58.97;;
50205;SDS011;36098;48.390;10.856;2023-11-25T12:07:22;139.48;;;59.45;;
50205;SDS011;36098;48.390;10.856;2023-11-25T12:09:47;134.32;;;58.47;;
50205;SDS011;36098;48.390;10.856;2023-11-25T12:12:12;129.80;;;57.08;;
50205;SDS011;36098;48.390;10.856;2023-11-25T12:14:38;122.78;;;54.95;;
50205;SDS011;36098;48.390;10.856;2023-11-25T12:17:04;125.25;;;56.20;;
50205;SDS011;36098;48.390;10.856;2023-11-25T12:19:29;132.07;;;55.80;;
50205;SDS011;36098;48.390;10.856;2023-11-25T12:21:55;126.10;;;54.58;;
50205;SDS011;36098;48.390;10.856;2023-11-25T12:24:20;123.95;;;56.20;;
50205;SDS011;36098;48.390;10.856;2023-11-25T12:26:46;128.65;;;54.67;;
50205;SDS011;36098;48.390;10.856;2023-11-25T12:29:17;126.13;;;54.45;;
50205;SDS011;36098;48.390;10.856;2023-11-25T12:31:48;119.65;;;53.75;;
50205;SDS011;36098;48.390;10.856;2023-11-25T12:34:14;122.97;;;51.60;;
50205;SDS011;36098;48.390;10.856;2023-11-25T12:36:39;111.25;;;51.78;;
50205;SDS011;36098;48.390;10.856;2023-11-25T12:39:05;112.95;;;49.25;;
50205;SDS011;36098;48.390;10.856;2023-11-25T12:41:36;115.05;;;50.67;;
50205;SDS011;36098;48.390;10.856;2023-11-25T12:44:04;109.45;;;51.42;;
50205;SDS011;36098;48.390;10.856;2023-11-25T12:46:36;109.00;;;49.78;;
50205;SDS011;36098;48.390;10.856;2023-11-25T12:49:21;108.07;;;46.42;;
50205;SDS011;36098;48.390;10.856;2023-11-25T12:51:47;110.80;;;48.17;;
50205;SDS011;36098;48.390;10.856;2023-11-25T12:54:15;117.47;;;48.42;;
50205;SDS011;36098;48.390;10.856;2023-11-25T12:56:41;104.45;;;47.45;;
50205;SDS011;36098;48.390;10.856;2023-11-25T12:59:07;95.45;;;45.95;;
50205;SDS011;36098;48.390;10.856;2023-11-25T13:01:32;103.43;;;46.20;;
50205;SDS011;36098;48.390;10.856;2023-11-25T13:04:02;111.65;;;45.65;;
50205;SDS011;36098;48.390;10.856;2023-11-25T13:06:28;100.15;;;45.40;;
50205;SDS011;36098;48.390;10.856;2023-11-25T13:08:54;100.53;;;44.40;;
50205;SDS011;36098;48.390;10.856;2023-11-25T13:11:19;95.47;;;45.15;;
50205;SDS011;36098;48.390;10.856;2023-11-25T13:13:44;96.05;;;44.58;;
50205;SDS011;36098;48.390;10.856;2023-11-25T13:16:10;105.45;;;45.25;;
50205;SDS011;36098;48.390;10.856;2023-11-25T13:18:37;102.65;;;46.30;;
50205;SDS011;36098;48.390;10.856;2023-11-25T13:21:13;109.13;;;45.85;;
50205;SDS011;36098;48.390;10.856;2023-11-25T13:23:38;110.78;;;46.78;;
50205;SDS011;36098;48.390;10.856;2023-11-25T13:26:04;115.45;;;47.78;;
50205;SDS011;36098;48.390;10.856;2023-11-25T13:28:32;123.10;;;50.33;;
50205;SDS011;36098;48.390;10.856;2023-11-25T13:30:58;128.32;;;48.97;;
50205;SDS011;36098;48.390;10.856;2023-11-25T13:33:23;107.90;;;46.75;;
50205;SDS011;36098;48.390;10.856;2023-11-25T13:35:49;109.30;;;46.20;;
50205;SDS011;36098;48.390;10.856;2023-11-25T13:38:14;121.25;;;48.97;;
50205;SDS011;36098;48.390;10.856;2023-11-25T13:40:40;107.32;;;46.67;;
50205;SDS011;36098;48.390;10.856;2023-11-25T13:43:08;122.22;;;49.53;;
50205;SDS011;36098;48.390;10.856;2023-11-25T13:45:35;107.93;;;47.95;;
50205;SDS011;36098;48.390;10.856;2023-11-25T13:48:00;105.65;;;46.03;;
50205;SDS011;36098;48.390;10.856;2023-11-25T13:50:30;109.10;;;45.50;;
50205;SDS011;36098;48.390;10.856;2023-11-25T13:52:55;121.05;;;47.13;;
50205;SDS011;36098;48.390;10.856;2023-11-25T13:55:21;112.07;;;46.60;;
50205;SDS011;36098;48.390;10.856;2023-11-25T13:57:47;115.30;;;44.72;;
50205;SDS011;36098;48.390;10.856;2023-11-25T14:00:16;106.18;;;45.30;;
50205;SDS011;36098;48.390;10.856;2023-11-25T14:02:46;108.82;;;44.80;;
50205;SDS011;36098;48.390;10.856;2023-11-25T14:05:12;98.65;;;43.70;;
50205;SDS011;36098;48.390;10.856;2023-11-25T14:07:39;97.18;;;42.15;;
50205;SDS011;36098;48.390;10.856;2023-11-25T14:10:07;91.60;;;40.75;;
50205;SDS011;36098;48.390;10.856;2023-11-25T14:12:34;95.43;;;41.42;;
50205;SDS011;36098;48.390;10.856;2023-11-25T14:15:01;89.70;;;40.50;;
50205;SDS011;36098;48.390;10.856;2023-11-25T14:17:28;89.78;;;39.42;;
50205;SDS011;36098;48.390;10.856;2023-11-25T14:19:55;90.78;;;38.90;;
50205;SDS011;36098;48.390;10.856;2023-11-25T14:22:20;82.60;;;37.25;;
50205;SDS011;36098;48.390;10.856;2023-11-25T14:24:46;78.20;;;36.72;;
50205;SDS011;36098;48.390;10.856;2023-11-25T14:27:11;78.38;;;36.63;;
50205;SDS011;36098;48.390;10.856;2023-11-25T14:29:37;78.88;;;36.58;;
50205;SDS011;36098;48.390;10.856;2023-11-25T14:32:03;72.63;;;34.42;;
50205;SDS011;36098;48.390;10.856;2023-11-25T14:34:29;77.72;;;35.83;;